createdAt,value
2023-11-19T00:01:34.121Z,100046.72
2023-11-19T00:06:37.206Z,100043.83
2023-11-19T00:11:40.192Z,100040.46
2023-11-19T00:16:43.151Z,100035.67
2023-11-19T00:21:47.179Z,100023.77
2023-11-19T00:26:51.441Z,100024.64
2023-11-19T00:31:54.551Z,100026.41
2023-11-19T00:36:57.614Z,100034.42
2023-11-19T00:42:00.645Z,100038.91
2023-11-19T00:47:03.987Z,100030.15
2023-11-19T00:52:07.717Z,100015.20
2023-11-19T00:57:10.852Z,100002.08
2023-11-19T01:02:15.505Z,99998.31
2023-11-19T01:07:18.638Z,99985.80
2023-11-19T01:12:22.104Z,99984.70
2023-11-19T01:17:25.084Z,99987.11
2023-11-19T01:22:28.097Z,99979.30
2023-11-19T01:27:31.145Z,99966.21
2023-11-19T01:32:34.143Z,99955.86
2023-11-19T01:37:37.782Z,99959.23
2023-11-19T01:42:42.346Z,99956.39
2023-11-19T01:47:45.613Z,99960.53
2023-11-19T01:52:49.579Z,99946.00
2023-11-19T01:57:54.847Z,99934.39
2023-11-19T02:02:58.480Z,99920.58
2023-11-19T02:08:02.869Z,99909.67
2023-11-19T02:13:07.536Z,99902.70
2023-11-19T02:18:29.395Z,99904.52
2023-11-19T02:23:32.894Z,99889.85
2023-11-19T02:28:38.320Z,99872.48
2023-11-19T02:33:41.750Z,99858.33
2023-11-19T02:38:44.776Z,99870.48
2023-11-19T02:43:49.885Z,99873.45
2023-11-19T02:48:53.214Z,99878.76
2023-11-19T02:53:56.301Z,99873.15
2023-11-19T02:58:59.602Z,99867.46
2023-11-19T03:04:04.128Z,99855.40
2023-11-19T03:09:11.717Z,99848.91
2023-11-19T03:14:14.755Z,99842.73
2023-11-19T03:19:25.898Z,99835.23
2023-11-19T03:24:29.198Z,99838.70
2023-11-19T03:29:32.208Z,99822.22
2023-11-19T03:34:35.210Z,99806.03
2023-11-19T03:39:38.623Z,99806.84
2023-11-19T03:44:41.583Z,99795.48
2023-11-19T03:49:49.921Z,99774.23
2023-11-19T03:54:52.888Z,99766.23
2023-11-19T03:59:56.846Z,99755.08
2023-11-19T04:04:59.671Z,99751.13
2023-11-19T04:10:03.372Z,99755.79
2023-11-19T04:15:07.997Z,99752.65
2023-11-19T04:20:14.747Z,99741.48
2023-11-19T04:25:18.981Z,99738.81
2023-11-19T04:30:21.874Z,99722.59
2023-11-19T04:35:24.861Z,99711.23
2023-11-19T04:40:27.884Z,99692.39
2023-11-19T04:45:31.042Z,99678.80
2023-11-19T04:50:34.023Z,99671.42
2023-11-19T04:55:37.024Z,99672.94
2023-11-19T05:00:40.055Z,99659.96
2023-11-19T05:05:43.028Z,99649.89
2023-11-19T05:10:46.054Z,99649.02
2023-11-19T05:15:49.029Z,99652.26
2023-11-19T05:20:52.009Z,99647.73
2023-11-19T05:25:55.303Z,99641.35
2023-11-19T05:30:58.849Z,99645.08
2023-11-19T05:36:04.706Z,99649.58
2023-11-19T05:41:07.782Z,99643.63
2023-11-19T05:51:17.698Z,99634.17
2023-11-19T05:56:23.126Z,99631.64
2023-11-19T06:01:26.480Z,99629.52
2023-11-19T06:06:30.666Z,99617.55
2023-11-19T06:11:37.246Z,99618.80
2023-11-19T06:16:41.595Z,99625.89
2023-11-19T06:21:44.724Z,99622.84
2023-11-19T06:26:47.698Z,99613.14
2023-11-19T06:31:50.692Z,99609.98
2023-11-19T06:36:54.311Z,99608.02
2023-11-19T06:41:57.839Z,99611.70
2023-11-19T06:47:00.809Z,99611.04
2023-11-19T06:52:10.455Z,99606.44
2023-11-19T06:57:13.647Z,99598.63
2023-11-19T07:02:16.778Z,99592.10
2023-11-19T07:07:20.057Z,99582.39
2023-11-19T07:12:23.065Z,99573.73
2023-11-19T07:17:26.301Z,99568.18
2023-11-19T07:22:31.385Z,99568.94
2023-11-19T07:27:40.539Z,99560.61
2023-11-19T07:32:44.247Z,99551.86
2023-11-19T07:37:49.172Z,99545.40
2023-11-19T07:42:52.574Z,99539.67
2023-11-19T07:47:56.083Z,99537.52
2023-11-19T07:52:59.110Z,99529.21
2023-11-19T07:58:02.488Z,99520.05
2023-11-19T08:03:06.289Z,99514.20
2023-11-19T08:08:09.636Z,99510.18
2023-11-19T08:13:13.269Z,99506.98
2023-11-19T08:18:16.328Z,99505.35
2023-11-19T08:23:19.665Z,99500.48
2023-11-19T08:28:22.626Z,99491.23
2023-11-19T08:33:25.663Z,99489.38
2023-11-19T08:38:32.169Z,99483.80
2023-11-19T08:43:35.443Z,99479.57
2023-11-19T08:48:39.532Z,99465.27
2023-11-19T08:53:43.245Z,99456.98
2023-11-19T08:58:46.239Z,99451.83
2023-11-19T09:03:49.385Z,99441.39
2023-11-19T09:08:52.558Z,99438.46
2023-11-19T09:13:55.599Z,99434.52
2023-11-19T09:19:00.541Z,99429.23
2023-11-19T09:24:03.809Z,99422.83
2023-11-19T09:29:06.798Z,99414.62
2023-11-19T09:34:09.953Z,99410.03
2023-11-19T09:39:19.167Z,99404.36
2023-11-19T09:44:22.527Z,99393.45
2023-11-19T09:54:34.876Z,99365.09
2023-11-19T09:59:40.291Z,99348.04
2023-11-19T10:04:54.462Z,99332.81
2023-11-19T10:09:57.517Z,99320.25
2023-11-19T10:15:00.966Z,99305.98
2023-11-19T10:20:05.887Z,99302.51
2023-11-19T10:25:30.288Z,99293.56
2023-11-19T10:30:35.561Z,99286.80
2023-11-19T10:36:03.376Z,99283.80
2023-11-19T10:41:06.897Z,99277.39
2023-11-19T10:46:15.440Z,99263.65
2023-11-19T10:51:25.114Z,99252.17
2023-11-19T10:56:33.231Z,99244.63
2023-11-19T11:01:46.580Z,99242.42
2023-11-19T11:06:51.432Z,99234.22
2023-11-19T11:11:56.450Z,99224.27
2023-11-19T11:17:04.320Z,99213.73
2023-11-19T11:22:08.878Z,99189.29
2023-11-19T11:27:36.295Z,99177.55
2023-11-19T11:33:32.072Z,99169.58
2023-11-19T11:38:41.144Z,99153.71
2023-11-19T11:43:52.766Z,99147.99
2023-11-19T11:48:57.611Z,99150.48
2023-11-19T11:54:01.106Z,99148.13
2023-11-19T11:59:04.172Z,99134.73
2023-11-19T12:04:07.312Z,99115.05
2023-11-19T12:09:10.533Z,99105.41
2023-11-19T12:14:14.221Z,99090.95
2023-11-19T12:19:18.292Z,99085.79
2023-11-19T12:24:25.824Z,99071.48
2023-11-19T12:29:28.870Z,99068.11
2023-11-19T12:34:31.963Z,99065.77
2023-11-19T12:39:35.310Z,99059.77
2023-11-19T12:44:38.353Z,99055.70
2023-11-19T12:49:41.618Z,99048.98
2023-11-19T12:54:44.707Z,99040.02
2023-11-19T13:00:00.402Z,99036.48
2023-11-19T13:05:25.887Z,99034.25
2023-11-19T13:10:29.516Z,99021.88
2023-11-19T13:15:34.423Z,99016.58
2023-11-19T13:20:37.473Z,99009.58
2023-11-19T13:25:40.465Z,99001.41
2023-11-19T13:30:43.464Z,98997.62
2023-11-19T13:35:46.508Z,98993.58
2023-11-19T13:40:49.514Z,98989.01
2023-11-19T13:45:54.489Z,98986.59
2023-11-19T13:50:57.699Z,98975.47
2023-11-19T13:56:01.267Z,98968.73
2023-11-19T14:01:04.620Z,98959.92
2023-11-19T14:06:09.728Z,98951.23
2023-11-19T14:11:12.958Z,98949.55
2023-11-19T14:16:18.629Z,98948.31
2023-11-19T14:21:22.527Z,98938.54
2023-11-19T14:26:25.781Z,98928.64
2023-11-19T14:31:34.694Z,98916.91
2023-11-19T14:36:37.716Z,98904.73
2023-11-19T14:41:40.816Z,98901.39
2023-11-19T14:46:44.125Z,98893.17
2023-11-19T14:51:49.257Z,98887.43
2023-11-19T14:56:53.228Z,98863.75
2023-11-19T15:01:56.424Z,98854.79
2023-11-19T15:07:00.863Z,98844.51
2023-11-19T15:12:06.832Z,98858.41
2023-11-19T15:17:09.867Z,98879.45
2023-11-19T15:22:13.684Z,98859.34
2023-11-19T15:27:17.053Z,98872.90
2023-11-19T15:32:20.548Z,98878.01
2023-11-19T15:37:23.619Z,98862.96
2023-11-19T15:42:26.621Z,98859.17
2023-11-19T15:47:30.343Z,98865.77
2023-11-19T15:52:33.488Z,98867.59
2023-11-19T15:57:36.987Z,98868.98
2023-11-19T16:02:40.774Z,98861.20
2023-11-19T16:07:44.041Z,98845.77
2023-11-19T16:12:47.709Z,98850.86
2023-11-19T16:17:50.973Z,98849.92
2023-11-19T16:22:54.221Z,98831.41
2023-11-19T16:27:57.495Z,98821.00
2023-11-19T16:33:01.118Z,98820.58
2023-11-19T16:38:05.092Z,98811.39
2023-11-19T16:43:08.192Z,98809.44
2023-11-19T16:48:11.279Z,98810.29
2023-11-19T16:53:14.461Z,98803.98
2023-11-19T16:58:17.539Z,98806.02
2023-11-19T17:03:22.046Z,98801.95
2023-11-19T17:08:26.523Z,98801.11
2023-11-19T17:13:29.700Z,98799.10
2023-11-19T17:18:32.794Z,98795.27
2023-11-19T17:23:35.985Z,98786.48
2023-11-19T17:28:39.018Z,98777.48
2023-11-19T17:33:42.356Z,98770.27
2023-11-19T17:38:45.434Z,98762.77
2023-11-19T17:43:49.963Z,98751.11
2023-11-19T17:48:53.340Z,98750.19
2023-11-19T17:53:56.394Z,98750.86
2023-11-19T17:58:59.467Z,98744.89
2023-11-19T18:04:02.592Z,98739.44
2023-11-19T18:09:07.551Z,98730.19
2023-11-19T18:14:12.548Z,98723.73
2023-11-19T18:19:16.334Z,98714.97
2023-11-19T18:24:19.406Z,98704.30
2023-11-19T18:29:22.522Z,98701.37
2023-11-19T18:34:25.977Z,98697.02
2023-11-19T18:39:29.088Z,98690.19
2023-11-19T18:44:33.617Z,98683.14
2023-11-19T18:49:37.415Z,98681.64
2023-11-19T18:54:40.400Z,98679.83
2023-11-19T18:59:43.475Z,98681.76
2023-11-19T19:04:46.726Z,98684.92
2023-11-19T19:09:54.145Z,98680.70
2023-11-19T19:15:16.512Z,98672.19
2023-11-19T19:20:20.490Z,98666.17
2023-11-19T19:25:26.610Z,98663.85
2023-11-19T19:30:29.939Z,98662.51
2023-11-19T19:35:33.337Z,98663.24
2023-11-19T19:40:37.128Z,98664.15
2023-11-19T19:45:40.198Z,98658.02
2023-11-19T19:50:43.310Z,98654.14
2023-11-19T19:55:46.499Z,98651.45
2023-11-19T20:00:49.692Z,98643.24
2023-11-19T20:05:56.529Z,98645.17
2023-11-19T20:10:59.805Z,98637.52
2023-11-19T20:16:03.679Z,98639.96
2023-11-19T20:21:10.905Z,98635.37
2023-11-19T20:26:19.240Z,98626.95
2023-11-19T20:31:22.338Z,98634.98
2023-11-19T20:36:25.473Z,98635.83
2023-11-19T20:41:29.808Z,98638.20
2023-11-19T20:46:32.809Z,98640.41
2023-11-19T20:51:40.615Z,98640.93
2023-11-19T20:56:44.483Z,98632.79
2023-11-19T21:01:47.567Z,98622.82
2023-11-19T21:11:57.846Z,98614.86
2023-11-19T21:17:01.353Z,98608.02
2023-11-19T21:22:05.727Z,98601.23
2023-11-19T21:27:09.202Z,98599.81
2023-11-19T21:32:12.874Z,98600.57
2023-11-19T21:37:16.157Z,98596.42
2023-11-19T21:42:22.592Z,98588.92
2023-11-19T21:47:25.825Z,98585.70
2023-11-19T21:52:29.141Z,98584.20
2023-11-19T21:57:32.344Z,98560.66
2023-11-19T22:02:35.591Z,98561.07
2023-11-19T22:07:39.145Z,98568.23
2023-11-19T22:12:42.374Z,98564.66
2023-11-19T22:17:45.537Z,98559.83
2023-11-19T22:22:48.987Z,98546.35
2023-11-19T22:27:52.943Z,98538.58
2023-11-19T22:32:56.275Z,98527.73
2023-11-19T22:37:59.282Z,98523.07
2023-11-19T22:43:02.457Z,98521.79
2023-11-19T22:48:05.740Z,98520.05
2023-11-19T22:53:08.813Z,98522.80
2023-11-19T22:58:12.363Z,98521.34
2023-11-19T23:03:15.868Z,98516.88
2023-11-19T23:08:19.038Z,98518.64
2023-11-19T23:13:22.143Z,98512.13
2023-11-19T23:18:26.743Z,98510.04
2023-11-19T23:23:29.757Z,98505.30
2023-11-19T23:28:32.719Z,98509.74
2023-11-19T23:33:35.789Z,98499.09
2023-11-19T23:38:38.820Z,98492.81
2023-11-19T23:43:41.821Z,98490.77
2023-11-19T23:53:51.143Z,98489.11
2023-11-19T23:58:55.127Z,98495.55
